Kilgore, Ohio
Current Conditions -  °F | °C
As of 5:53 PM on Tuesday 21 Oct 2014 (Local Time) from KPHD Reporting Station
Overcast Overcast  
Wind Chill: 44°   Ceiling: 1800
Heat Index: 49°   Visibility: 10mi
Dew Point: 43°   Wind: 12mph
Humidity: 80%   Direction: 320°NW
Pressure: 30.02"   Gusts: 18mph
Location:  40.5653°N, 81.0724°W
Report Text: KPHD 212153Z AUTO 32010G16KT 10SM BKN018 BKN025 OVC039 09/06 A3002 RMK AO2 SLP167 T00940061
Loading
Personal Weather Stations






























Interactive Weather Map
Tropical Storm Tracking
New forecast layout! Learn more

10-Day Weather Forecast

Advertisements
Track Severe Weather on mobile